sensor_id;sensor_type;location;lat;lon;timestamp;pressure;altitude;pressure_sealevel;temperature;humidity
35655;BME280;21773;50.010;19.972;2023-04-08T00:00:08;98950.69;;;7.38;63.70
35655;BME280;21773;50.010;19.972;2023-04-08T00:03:13;98953.06;;;7.54;63.50
35655;BME280;21773;50.010;19.972;2023-04-08T00:06:18;98953.03;;;7.48;63.21
35655;BME280;21773;50.010;19.972;2023-04-08T00:09:21;98961.66;;;7.43;63.26
35655;BME280;21773;50.010;19.972;2023-04-08T00:12:25;98957.06;;;7.30;63.43
35655;BME280;21773;50.010;19.972;2023-04-08T00:15:28;98931.81;;;7.12;63.63
35655;BME280;21773;50.010;19.972;2023-04-08T00:18:32;98963.28;;;7.31;63.39
35655;BME280;21773;50.010;19.972;2023-04-08T00:21:36;98956.97;;;7.11;64.04
35655;BME280;21773;50.010;19.972;2023-04-08T00:24:40;98958.81;;;7.10;64.30
35655;BME280;21773;50.010;19.972;2023-04-08T00:27:43;98951.56;;;7.04;64.31
35655;BME280;21773;50.010;19.972;2023-04-08T00:30:46;98966.28;;;7.15;64.26
35655;BME280;21773;50.010;19.972;2023-04-08T00:33:50;98961.56;;;7.23;63.75
35655;BME280;21773;50.010;19.972;2023-04-08T00:36:54;98956.63;;;7.20;63.38
35655;BME280;21773;50.010;19.972;2023-04-08T00:39:58;98963.28;;;7.31;63.24
35655;BME280;21773;50.010;19.972;2023-04-08T00:43:02;98966.59;;;7.39;62.87
35655;BME280;21773;50.010;19.972;2023-04-08T00:46:05;98961.81;;;7.28;62.71
35655;BME280;21773;50.010;19.972;2023-04-08T00:49:09;98967.63;;;7.38;62.44
35655;BME280;21773;50.010;19.972;2023-04-08T00:52:14;98966.41;;;7.41;62.25
35655;BME280;21773;50.010;19.972;2023-04-08T00:55:18;98963.91;;;7.33;62.23
35655;BME280;21773;50.010;19.972;2023-04-08T00:58:21;98963.81;;;7.13;62.71
35655;BME280;21773;50.010;19.972;2023-04-08T01:01:29;98976.94;;;7.02;63.02
35655;BME280;21773;50.010;19.972;2023-04-08T01:04:43;98963.41;;;6.82;63.42
35655;BME280;21773;50.010;19.972;2023-04-08T01:07:53;98970.69;;;6.94;63.14
35655;BME280;21773;50.010;19.972;2023-04-08T01:11:01;98967.97;;;6.88;63.21
35655;BME280;21773;50.010;19.972;2023-04-08T01:14:06;98970.19;;;6.84;63.59
35655;BME280;21773;50.010;19.972;2023-04-08T01:17:12;98976.84;;;6.88;63.57
35655;BME280;21773;50.010;19.972;2023-04-08T01:20:18;98982.56;;;6.85;63.64
35655;BME280;21773;50.010;19.972;2023-04-08T01:23:29;98979.03;;;6.78;63.72
35655;BME280;21773;50.010;19.972;2023-04-08T01:26:37;98979.47;;;6.82;63.74
35655;BME280;21773;50.010;19.972;2023-04-08T01:29:42;98986.91;;;6.86;63.18
35655;BME280;21773;50.010;19.972;2023-04-08T01:32:47;98991.25;;;6.87;63.20
35655;BME280;21773;50.010;19.972;2023-04-08T01:35:55;98984.41;;;6.78;63.62
35655;BME280;21773;50.010;19.972;2023-04-08T01:39:00;98986.09;;;6.86;64.04
35655;BME280;21773;50.010;19.972;2023-04-08T01:42:08;98990.03;;;6.90;63.55
35655;BME280;21773;50.010;19.972;2023-04-08T01:45:14;98987.16;;;6.91;63.77
35655;BME280;21773;50.010;19.972;2023-04-08T01:48:18;98995.69;;;7.02;63.06
35655;BME280;21773;50.010;19.972;2023-04-08T01:51:21;99002.22;;;6.92;63.32
35655;BME280;21773;50.010;19.972;2023-04-08T01:54:25;98997.88;;;6.91;63.01
35655;BME280;21773;50.010;19.972;2023-04-08T01:57:32;98990.88;;;6.90;63.16
35655;BME280;21773;50.010;19.972;2023-04-08T02:00:38;98997.63;;;6.86;63.43
35655;BME280;21773;50.010;19.972;2023-04-08T02:03:44;98988.44;;;6.95;63.01
35655;BME280;21773;50.010;19.972;2023-04-08T02:06:49;98989.91;;;6.98;62.94
35655;BME280;21773;50.010;19.972;2023-04-08T02:09:52;98995.38;;;6.83;63.00
35655;BME280;21773;50.010;19.972;2023-04-08T02:12:57;98999.72;;;6.91;63.20
35655;BME280;21773;50.010;19.972;2023-04-08T02:16:05;99006.44;;;6.80;63.11
35655;BME280;21773;50.010;19.972;2023-04-08T02:19:19;99011.03;;;6.86;62.87
35655;BME280;21773;50.010;19.972;2023-04-08T02:22:32;99014.50;;;6.80;63.13
35655;BME280;21773;50.010;19.972;2023-04-08T02:25:39;99009.13;;;6.80;63.19
35655;BME280;21773;50.010;19.972;2023-04-08T02:28:48;99020.31;;;6.84;63.13
35655;BME280;21773;50.010;19.972;2023-04-08T02:31:56;99010.72;;;6.75;63.23
35655;BME280;21773;50.010;19.972;2023-04-08T02:35:01;99022.59;;;6.87;63.00
35655;BME280;21773;50.010;19.972;2023-04-08T02:38:05;99018.59;;;6.76;63.24
35655;BME280;21773;50.010;19.972;2023-04-08T02:41:09;99014.72;;;6.79;63.05
35655;BME280;21773;50.010;19.972;2023-04-08T02:44:13;99018.50;;;6.63;63.39
35655;BME280;21773;50.010;19.972;2023-04-08T02:47:17;99011.13;;;6.72;63.28
35655;BME280;21773;50.010;19.972;2023-04-08T02:50:20;99018.34;;;6.71;63.32
35655;BME280;21773;50.010;19.972;2023-04-08T02:53:24;99023.88;;;6.70;63.33
35655;BME280;21773;50.010;19.972;2023-04-08T02:56:27;99028.38;;;6.63;63.79
35655;BME280;21773;50.010;19.972;2023-04-08T02:59:32;99021.94;;;6.57;64.32
35655;BME280;21773;50.010;19.972;2023-04-08T03:02:38;99028.44;;;6.48;64.59
35655;BME280;21773;50.010;19.972;2023-04-08T03:05:42;99030.69;;;6.44;64.74
35655;BME280;21773;50.010;19.972;2023-04-08T03:08:45;99028.38;;;6.41;65.01
35655;BME280;21773;50.010;19.972;2023-04-08T03:11:49;99027.34;;;6.21;65.44
35655;BME280;21773;50.010;19.972;2023-04-08T03:14:55;99041.50;;;6.15;65.85
35655;BME280;21773;50.010;19.972;2023-04-08T03:17:59;99039.09;;;6.20;65.77
35655;BME280;21773;50.010;19.972;2023-04-08T03:21:02;99041.69;;;6.14;66.20
35655;BME280;21773;50.010;19.972;2023-04-08T03:24:06;99036.16;;;6.15;66.01
35655;BME280;21773;50.010;19.972;2023-04-08T03:27:09;99037.88;;;6.23;65.76
35655;BME280;21773;50.010;19.972;2023-04-08T03:30:14;99039.78;;;6.29;65.63
35655;BME280;21773;50.010;19.972;2023-04-08T03:33:18;99046.09;;;6.21;65.35
35655;BME280;21773;50.010;19.972;2023-04-08T03:36:21;99056.66;;;6.08;65.95
35655;BME280;21773;50.010;19.972;2023-04-08T03:39:24;99029.19;;;5.99;66.09
35655;BME280;21773;50.010;19.972;2023-04-08T03:42:28;99045.81;;;6.16;65.58
35655;BME280;21773;50.010;19.972;2023-04-08T03:45:32;99058.53;;;6.29;65.33
35655;BME280;21773;50.010;19.972;2023-04-08T03:48:36;99056.69;;;6.29;64.96
35655;BME280;21773;50.010;19.972;2023-04-08T03:51:39;99060.38;;;6.28;64.62
35655;BME280;21773;50.010;19.972;2023-04-08T03:54:42;99059.94;;;6.25;64.80
35655;BME280;21773;50.010;19.972;2023-04-08T03:57:45;99060.13;;;6.23;64.63
35655;BME280;21773;50.010;19.972;2023-04-08T04:00:50;99063.06;;;6.28;64.56
35655;BME280;21773;50.010;19.972;2023-04-08T04:03:53;99067.59;;;6.28;64.49
35655;BME280;21773;50.010;19.972;2023-04-08T04:06:57;99074.91;;;6.40;63.96
35655;BME280;21773;50.010;19.972;2023-04-08T04:10:00;99076.53;;;6.35;64.12
35655;BME280;21773;50.010;19.972;2023-04-08T04:13:04;99082.63;;;6.50;63.75
35655;BME280;21773;50.010;19.972;2023-04-08T04:16:09;99082.16;;;6.40;63.97
35655;BME280;21773;50.010;19.972;2023-04-08T04:19:12;99087.38;;;6.48;63.94
35655;BME280;21773;50.010;19.972;2023-04-08T04:22:16;99093.09;;;6.66;63.87
35655;BME280;21773;50.010;19.972;2023-04-08T04:25:20;99088.97;;;6.64;63.23
35655;BME280;21773;50.010;19.972;2023-04-08T04:28:23;99097.69;;;6.72;63.15
35655;BME280;21773;50.010;19.972;2023-04-08T04:31:28;99098.09;;;6.69;62.98
35655;BME280;21773;50.010;19.972;2023-04-08T04:34:31;99108.03;;;6.75;63.03
35655;BME280;21773;50.010;19.972;2023-04-08T04:37:35;99102.34;;;6.85;62.79
35655;BME280;21773;50.010;19.972;2023-04-08T04:40:38;99109.00;;;6.89;62.48
35655;BME280;21773;50.010;19.972;2023-04-08T04:43:41;99106.81;;;6.78;62.10
35655;BME280;21773;50.010;19.972;2023-04-08T04:46:46;99117.91;;;6.75;62.34
35655;BME280;21773;50.010;19.972;2023-04-08T04:49:50;99121.06;;;6.78;62.42
35655;BME280;21773;50.010;19.972;2023-04-08T04:52:53;99101.31;;;6.65;62.57
35655;BME280;21773;50.010;19.972;2023-04-08T04:55:57;99121.50;;;6.82;62.45
35655;BME280;21773;50.010;19.972;2023-04-08T04:59:02;99124.75;;;6.99;62.37
35655;BME280;21773;50.010;19.972;2023-04-08T05:02:07;99125.19;;;7.02;61.76
35655;BME280;21773;50.010;19.972;2023-04-08T05:05:11;99128.78;;;6.88;61.82
35655;BME280;21773;50.010;19.972;2023-04-08T05:08:14;99130.16;;;7.05;62.01
35655;BME280;21773;50.010;19.972;2023-04-08T05:11:17;99127.97;;;7.15;61.79
35655;BME280;21773;50.010;19.972;2023-04-08T05:14:22;99129.69;;;7.23;61.56
35655;BME280;21773;50.010;19.972;2023-04-08T05:17:27;99133.34;;;7.43;61.36
35655;BME280;21773;50.010;19.972;2023-04-08T05:20:30;99141.69;;;7.55;60.83
35655;BME280;21773;50.010;19.972;2023-04-08T05:23:34;99143.53;;;7.54;60.64
35655;BME280;21773;50.010;19.972;2023-04-08T05:26:37;99141.50;;;7.56;60.64
35655;BME280;21773;50.010;19.972;2023-04-08T05:29:41;99143.63;;;7.39;60.33
35655;BME280;21773;50.010;19.972;2023-04-08T05:32:46;99150.63;;;7.62;60.35
35655;BME280;21773;50.010;19.972;2023-04-08T05:35:49;99148.84;;;7.75;59.18
35655;BME280;21773;50.010;19.972;2023-04-08T05:38:52;99165.59;;;7.84;58.96
35655;BME280;21773;50.010;19.972;2023-04-08T05:41:56;99148.72;;;7.90;58.26
35655;BME280;21773;50.010;19.972;2023-04-08T05:44:59;99159.09;;;8.00;58.66
35655;BME280;21773;50.010;19.972;2023-04-08T05:48:04;99166.16;;;8.07;58.33
35655;BME280;21773;50.010;19.972;2023-04-08T05:51:12;99162.66;;;8.13;58.24
35655;BME280;21773;50.010;19.972;2023-04-08T05:54:16;99168.50;;;8.23;57.99
35655;BME280;21773;50.010;19.972;2023-04-08T05:57:19;99176.03;;;8.35;57.46
35655;BME280;21773;50.010;19.972;2023-04-08T06:00:22;99181.19;;;8.30;56.99
35655;BME280;21773;50.010;19.972;2023-04-08T06:03:29;99187.06;;;8.53;56.63
35655;BME280;21773;50.010;19.972;2023-04-08T06:06:32;99197.69;;;8.81;56.54
35655;BME280;21773;50.010;19.972;2023-04-08T06:09:36;99204.75;;;8.95;55.79
35655;BME280;21773;50.010;19.972;2023-04-08T06:12:40;99204.34;;;8.98;55.14
35655;BME280;21773;50.010;19.972;2023-04-08T06:15:43;99209.66;;;8.72;54.64
35655;BME280;21773;50.010;19.972;2023-04-08T06:18:48;99214.47;;;8.89;54.92
35655;BME280;21773;50.010;19.972;2023-04-08T06:21:52;99210.91;;;8.69;55.52
35655;BME280;21773;50.010;19.972;2023-04-08T06:25:01;99222.69;;;8.81;56.01
35655;BME280;21773;50.010;19.972;2023-04-08T06:28:05;99223.16;;;8.91;55.75
35655;BME280;21773;50.010;19.972;2023-04-08T06:31:08;99230.00;;;8.94;55.66
35655;BME280;21773;50.010;19.972;2023-04-08T06:34:13;99227.13;;;9.15;55.18
35655;BME280;21773;50.010;19.972;2023-04-08T06:37:17;99222.19;;;9.32;54.55
35655;BME280;21773;50.010;19.972;2023-04-08T06:40:20;99212.47;;;9.37;54.44
35655;BME280;21773;50.010;19.972;2023-04-08T06:43:23;99230.28;;;9.58;53.56
35655;BME280;21773;50.010;19.972;2023-04-08T06:46:27;99229.03;;;9.80;53.41
35655;BME280;21773;50.010;19.972;2023-04-08T06:49:31;99230.69;;;9.94;53.10
35655;BME280;21773;50.010;19.972;2023-04-08T06:52:34;99232.94;;;10.17;52.57
35655;BME280;21773;50.010;19.972;2023-04-08T06:55:38;99234.16;;;10.34;52.42
35655;BME280;21773;50.010;19.972;2023-04-08T06:58:41;99231.22;;;10.49;51.81
35655;BME280;21773;50.010;19.972;2023-04-08T07:01:44;99231.22;;;10.42;51.41
35655;BME280;21773;50.010;19.972;2023-04-08T07:04:49;99231.34;;;10.61;51.84
35655;BME280;21773;50.010;19.972;2023-04-08T07:07:53;99233.47;;;10.97;50.25
35655;BME280;21773;50.010;19.972;2023-04-08T07:10:56;99240.16;;;11.25;48.90
35655;BME280;21773;50.010;19.972;2023-04-08T07:14:00;99238.84;;;11.03;49.53
35655;BME280;21773;50.010;19.972;2023-04-08T07:17:03;99241.59;;;11.28;48.86
35655;BME280;21773;50.010;19.972;2023-04-08T07:20:10;99229.16;;;11.27;48.90
35655;BME280;21773;50.010;19.972;2023-04-08T07:23:14;99236.84;;;11.55;48.75
35655;BME280;21773;50.010;19.972;2023-04-08T07:26:17;99239.19;;;11.76;47.27
35655;BME280;21773;50.010;19.972;2023-04-08T07:29:21;99242.88;;;12.06;48.28
35655;BME280;21773;50.010;19.972;2023-04-08T07:32:24;99249.44;;;12.35;47.40
35655;BME280;21773;50.010;19.972;2023-04-08T07:35:30;99260.41;;;12.58;46.33
35655;BME280;21773;50.010;19.972;2023-04-08T07:38:33;99262.22;;;12.65;46.08
35655;BME280;21773;50.010;19.972;2023-04-08T07:41:37;99255.66;;;12.72;45.20
35655;BME280;21773;50.010;19.972;2023-04-08T07:44:40;99264.31;;;12.99;45.83
35655;BME280;21773;50.010;19.972;2023-04-08T07:47:44;99258.03;;;13.17;45.27
35655;BME280;21773;50.010;19.972;2023-04-08T07:50:49;99259.34;;;13.14;44.65
35655;BME280;21773;50.010;19.972;2023-04-08T07:54:11;99268.72;;;13.12;45.03
35655;BME280;21773;50.010;19.972;2023-04-08T07:57:18;99267.91;;;13.41;45.00
35655;BME280;21773;50.010;19.972;2023-04-08T08:00:24;99268.97;;;13.40;42.90
35655;BME280;21773;50.010;19.972;2023-04-08T08:03:27;99271.44;;;13.12;42.93
35655;BME280;21773;50.010;19.972;2023-04-08T08:06:35;99271.38;;;12.82;43.74
35655;BME280;21773;50.010;19.972;2023-04-08T08:09:39;99276.28;;;12.55;45.34
35655;BME280;21773;50.010;19.972;2023-04-08T08:12:42;99274.19;;;12.75;44.89
35655;BME280;21773;50.010;19.972;2023-04-08T08:15:46;99265.56;;;12.96;44.48
35655;BME280;21773;50.010;19.972;2023-04-08T08:18:49;99270.63;;;12.93;44.64
35655;BME280;21773;50.010;19.972;2023-04-08T08:21:54;99266.47;;;13.09;45.48
35655;BME280;21773;50.010;19.972;2023-04-08T08:24:58;99277.41;;;13.32;45.74
35655;BME280;21773;50.010;19.972;2023-04-08T08:28:01;99276.44;;;13.56;43.81
35655;BME280;21773;50.010;19.972;2023-04-08T08:31:04;99275.78;;;13.72;44.00
35655;BME280;21773;50.010;19.972;2023-04-08T08:34:08;99278.22;;;13.62;43.86
35655;BME280;21773;50.010;19.972;2023-04-08T08:37:13;99274.56;;;13.57;43.84
35655;BME280;21773;50.010;19.972;2023-04-08T08:40:16;99278.09;;;13.57;43.82
35655;BME280;21773;50.010;19.972;2023-04-08T08:43:19;99286.56;;;13.61;44.29
35655;BME280;21773;50.010;19.972;2023-04-08T08:46:23;99289.56;;;13.41;43.56
35655;BME280;21773;50.010;19.972;2023-04-08T08:49:26;99281.50;;;13.05;44.76
35655;BME280;21773;50.010;19.972;2023-04-08T08:52:31;99280.41;;;12.94;44.69
35655;BME280;21773;50.010;19.972;2023-04-08T08:55:35;99282.56;;;12.85;45.53
35655;BME280;21773;50.010;19.972;2023-04-08T08:58:59;99289.84;;;13.21;45.63
35655;BME280;21773;50.010;19.972;2023-04-08T09:02:22;99281.91;;;13.79;44.03
35655;BME280;21773;50.010;19.972;2023-04-08T09:05:25;99285.97;;;14.23;43.43
35655;BME280;21773;50.010;19.972;2023-04-08T09:08:31;99276.91;;;14.41;42.71
35655;BME280;21773;50.010;19.972;2023-04-08T09:11:36;99294.94;;;14.70;43.12
35655;BME280;21773;50.010;19.972;2023-04-08T09:14:41;99300.53;;;15.04;41.32
35655;BME280;21773;50.010;19.972;2023-04-08T09:17:44;99296.50;;;15.35;40.53
35655;BME280;21773;50.010;19.972;2023-04-08T09:20:51;99306.22;;;16.04;40.98
35655;BME280;21773;50.010;19.972;2023-04-08T09:23:56;99301.06;;;16.74;40.32
35655;BME280;21773;50.010;19.972;2023-04-08T09:26:59;99305.38;;;17.14;37.85
35655;BME280;21773;50.010;19.972;2023-04-08T09:30:12;99306.25;;;16.76;37.49
35655;BME280;21773;50.010;19.972;2023-04-08T09:33:16;99307.69;;;16.62;37.92
35655;BME280;21773;50.010;19.972;2023-04-08T09:36:19;99306.94;;;16.50;38.32
35655;BME280;21773;50.010;19.972;2023-04-08T09:39:24;99314.19;;;16.44;38.68
35655;BME280;21773;50.010;19.972;2023-04-08T09:42:28;99311.91;;;16.36;38.76
35655;BME280;21773;50.010;19.972;2023-04-08T09:45:32;99309.25;;;16.24;39.38
35655;BME280;21773;50.010;19.972;2023-04-08T09:48:39;99246.31;;;15.82;39.45
35655;BME280;21773;50.010;19.972;2023-04-08T09:51:49;99305.47;;;16.25;39.19
35655;BME280;21773;50.010;19.972;2023-04-08T09:55:01;99303.81;;;15.91;38.29
35655;BME280;21773;50.010;19.972;2023-04-08T09:58:10;99318.09;;;15.41;39.69
35655;BME280;21773;50.010;19.972;2023-04-08T10:01:27;99315.28;;;15.08;40.76
35655;BME280;21773;50.010;19.972;2023-04-08T10:04:37;99311.97;;;15.06;41.16
35655;BME280;21773;50.010;19.972;2023-04-08T10:07:41;99319.94;;;14.84;41.06
35655;BME280;21773;50.010;19.972;2023-04-08T10:10:45;99323.59;;;14.43;42.28
35655;BME280;21773;50.010;19.972;2023-04-08T10:13:50;99329.47;;;14.28;42.58
35655;BME280;21773;50.010;19.972;2023-04-08T10:17:22;99324.84;;;14.17;42.40
35655;BME280;21773;50.010;19.972;2023-04-08T10:20:43;99321.66;;;13.97;43.06
35655;BME280;21773;50.010;19.972;2023-04-08T10:23:54;99325.53;;;13.89;43.37
35655;BME280;21773;50.010;19.972;2023-04-08T10:27:02;99319.06;;;13.91;43.70
35655;BME280;21773;50.010;19.972;2023-04-08T10:30:37;99319.41;;;13.82;44.12
35655;BME280;21773;50.010;19.972;2023-04-08T10:33:41;99322.91;;;13.71;44.32
35655;BME280;21773;50.010;19.972;2023-04-08T10:36:47;99317.69;;;13.58;44.51
35655;BME280;21773;50.010;19.972;2023-04-08T10:39:53;99335.66;;;13.53;44.62
35655;BME280;21773;50.010;19.972;2023-04-08T10:42:58;99329.09;;;13.30;44.78
35655;BME280;21773;50.010;19.972;2023-04-08T10:46:02;99341.28;;;13.03;45.12
35655;BME280;21773;50.010;19.972;2023-04-08T10:49:06;99327.66;;;12.55;46.34
35655;BME280;21773;50.010;19.972;2023-04-08T10:52:09;99333.31;;;12.29;46.86
35655;BME280;21773;50.010;19.972;2023-04-08T10:55:13;99340.09;;;11.88;47.89
35655;BME280;21773;50.010;19.972;2023-04-08T10:58:18;99334.38;;;11.71;48.88
35655;BME280;21773;50.010;19.972;2023-04-08T11:01:22;99339.41;;;11.61;49.23
35655;BME280;21773;50.010;19.972;2023-04-08T11:04:25;99338.59;;;11.61;49.12
35655;BME280;21773;50.010;19.972;2023-04-08T11:07:29;99335.63;;;11.69;48.74
35655;BME280;21773;50.010;19.972;2023-04-08T11:10:36;99323.50;;;11.47;49.02
35655;BME280;21773;50.010;19.972;2023-04-08T11:13:42;99331.25;;;11.68;48.71
35655;BME280;21773;50.010;19.972;2023-04-08T11:16:55;99330.31;;;11.56;48.88
35655;BME280;21773;50.010;19.972;2023-04-08T11:19:58;99325.53;;;11.58;49.18
35655;BME280;21773;50.010;19.972;2023-04-08T11:23:12;99336.09;;;11.59;49.50
35655;BME280;21773;50.010;19.972;2023-04-08T11:26:16;99327.78;;;11.61;49.47
35655;BME280;21773;50.010;19.972;2023-04-08T11:29:22;99329.03;;;11.58;49.63
35655;BME280;21773;50.010;19.972;2023-04-08T11:32:27;99328.63;;;11.61;49.78
35655;BME280;21773;50.010;19.972;2023-04-08T11:35:31;99325.56;;;11.51;50.38
35655;BME280;21773;50.010;19.972;2023-04-08T11:38:38;99329.47;;;11.55;50.25
35655;BME280;21773;50.010;19.972;2023-04-08T11:41:42;99338.22;;;11.51;49.98
35655;BME280;21773;50.010;19.972;2023-04-08T11:44:47;99335.06;;;11.60;50.08
35655;BME280;21773;50.010;19.972;2023-04-08T11:47:50;99337.31;;;11.63;50.26
35655;BME280;21773;50.010;19.972;2023-04-08T11:51:01;99329.03;;;11.58;50.26
35655;BME280;21773;50.010;19.972;2023-04-08T11:54:05;99331.00;;;11.45;50.40
35655;BME280;21773;50.010;19.972;2023-04-08T11:57:09;99321.66;;;11.41;50.75
35655;BME280;21773;50.010;19.972;2023-04-08T12:00:14;99316.94;;;11.29;51.40
35655;BME280;21773;50.010;19.972;2023-04-08T12:03:17;99324.69;;;11.19;51.58
35655;BME280;21773;50.010;19.972;2023-04-08T12:06:20;99321.19;;;11.12;52.21
35655;BME280;21773;50.010;19.972;2023-04-08T12:09:25;99319.38;;;11.00;52.70
35655;BME280;21773;50.010;19.972;2023-04-08T12:12:28;99318.88;;;11.16;52.97
35655;BME280;21773;50.010;19.972;2023-04-08T12:15:33;99322.13;;;11.31;52.54
35655;BME280;21773;50.010;19.972;2023-04-08T12:18:38;99317.06;;;11.48;52.20
35655;BME280;21773;50.010;19.972;2023-04-08T12:21:42;99295.31;;;11.36;52.29
35655;BME280;21773;50.010;19.972;2023-04-08T12:24:46;99318.03;;;11.60;52.41
35655;BME280;21773;50.010;19.972;2023-04-08T12:27:49;99316.34;;;11.59;51.89
35655;BME280;21773;50.010;19.972;2023-04-08T12:30:54;99324.59;;;11.70;51.55
35655;BME280;21773;50.010;19.972;2023-04-08T12:33:57;99320.66;;;11.35;51.65
35655;BME280;21773;50.010;19.972;2023-04-08T12:37:01;99322.97;;;11.32;52.13
35655;BME280;21773;50.010;19.972;2023-04-08T12:40:05;99324.66;;;11.26;52.15
35655;BME280;21773;50.010;19.972;2023-04-08T12:43:09;99325.03;;;11.36;52.25
35655;BME280;21773;50.010;19.972;2023-04-08T12:46:14;99323.19;;;11.30;52.22
35655;BME280;21773;50.010;19.972;2023-04-08T12:49:17;99321.03;;;11.45;52.29
35655;BME280;21773;50.010;19.972;2023-04-08T12:52:20;99314.06;;;11.62;51.90
35655;BME280;21773;50.010;19.972;2023-04-08T12:55:23;99315.94;;;11.62;52.01
35655;BME280;21773;50.010;19.972;2023-04-08T12:58:26;99321.47;;;11.73;52.08
35655;BME280;21773;50.010;19.972;2023-04-08T13:01:31;99326.63;;;11.82;52.13
35655;BME280;21773;50.010;19.972;2023-04-08T13:04:34;99320.41;;;11.81;51.91
35655;BME280;21773;50.010;19.972;2023-04-08T13:07:38;99323.31;;;11.80;51.97
35655;BME280;21773;50.010;19.972;2023-04-08T13:10:42;99319.03;;;11.97;51.97
35655;BME280;21773;50.010;19.972;2023-04-08T13:13:46;99306.66;;;12.07;51.61
35655;BME280;21773;50.010;19.972;2023-04-08T13:16:50;99314.53;;;12.15;51.05
35655;BME280;21773;50.010;19.972;2023-04-08T13:19:54;99313.13;;;12.31;51.23
35655;BME280;21773;50.010;19.972;2023-04-08T13:22:57;99310.66;;;12.48;51.18
35655;BME280;21773;50.010;19.972;2023-04-08T13:26:02;99310.50;;;12.61;50.58
35655;BME280;21773;50.010;19.972;2023-04-08T13:29:05;99319.91;;;12.40;50.45
35655;BME280;21773;50.010;19.972;2023-04-08T13:32:10;99312.84;;;12.39;50.38
35655;BME280;21773;50.010;19.972;2023-04-08T13:35:13;99317.47;;;12.32;50.85
35655;BME280;21773;50.010;19.972;2023-04-08T13:38:17;99314.34;;;12.53;50.75
35655;BME280;21773;50.010;19.972;2023-04-08T13:41:20;99311.56;;;12.96;50.83
35655;BME280;21773;50.010;19.972;2023-04-08T13:44:23;99312.81;;;13.19;49.22
35655;BME280;21773;50.010;19.972;2023-04-08T13:47:28;99309.28;;;13.48;48.68
35655;BME280;21773;50.010;19.972;2023-04-08T13:50:32;99314.84;;;13.65;48.01
35655;BME280;21773;50.010;19.972;2023-04-08T13:53:35;99304.84;;;13.65;48.43
35655;BME280;21773;50.010;19.972;2023-04-08T13:56:38;99310.47;;;13.64;47.59
35655;BME280;21773;50.010;19.972;2023-04-08T13:59:41;99306.88;;;13.40;47.99
35655;BME280;21773;50.010;19.972;2023-04-08T14:02:47;99308.88;;;13.15;48.59
35655;BME280;21773;50.010;19.972;2023-04-08T14:05:52;99306.47;;;13.07;48.81
35655;BME280;21773;50.010;19.972;2023-04-08T14:08:55;99300.38;;;12.93;48.96
35655;BME280;21773;50.010;19.972;2023-04-08T14:11:58;99315.88;;;13.04;48.85
35655;BME280;21773;50.010;19.972;2023-04-08T14:15:01;99308.19;;;13.01;48.83
35655;BME280;21773;50.010;19.972;2023-04-08T14:18:06;99307.47;;;12.94;49.09
35655;BME280;21773;50.010;19.972;2023-04-08T14:21:11;99298.91;;;12.79;49.56
35655;BME280;21773;50.010;19.972;2023-04-08T14:24:15;99303.94;;;12.93;49.51
35655;BME280;21773;50.010;19.972;2023-04-08T14:27:19;99297.00;;;13.16;48.95
35655;BME280;21773;50.010;19.972;2023-04-08T14:30:23;99304.03;;;13.35;48.71
35655;BME280;21773;50.010;19.972;2023-04-08T14:33:27;99307.22;;;13.73;48.16
35655;BME280;21773;50.010;19.972;2023-04-08T14:36:31;99303.41;;;14.04;47.82
35655;BME280;21773;50.010;19.972;2023-04-08T14:39:34;99308.91;;;13.98;46.88
35655;BME280;21773;50.010;19.972;2023-04-08T14:42:38;99316.13;;;14.04;47.58
35655;BME280;21773;50.010;19.972;2023-04-08T14:45:41;99321.78;;;14.14;47.52
35655;BME280;21773;50.010;19.972;2023-04-08T14:48:47;99315.66;;;14.07;46.90
35655;BME280;21773;50.010;19.972;2023-04-08T14:51:52;99314.25;;;14.04;47.19
35655;BME280;21773;50.010;19.972;2023-04-08T14:54:55;99321.09;;;14.07;47.26
35655;BME280;21773;50.010;19.972;2023-04-08T14:57:59;99317.38;;;13.78;47.01
35655;BME280;21773;50.010;19.972;2023-04-08T15:01:02;99320.28;;;13.65;47.50
35655;BME280;21773;50.010;19.972;2023-04-08T15:04:07;99317.97;;;13.50;47.42
35655;BME280;21773;50.010;19.972;2023-04-08T15:07:10;99322.28;;;13.58;47.70
35655;BME280;21773;50.010;19.972;2023-04-08T15:10:14;99319.91;;;13.61;47.48
35655;BME280;21773;50.010;19.972;2023-04-08T15:13:17;99316.28;;;13.67;47.87
35655;BME280;21773;50.010;19.972;2023-04-08T15:16:20;99317.97;;;13.80;47.63
35655;BME280;21773;50.010;19.972;2023-04-08T15:19:25;99308.03;;;13.74;46.97
35655;BME280;21773;50.010;19.972;2023-04-08T15:22:32;99312.19;;;13.76;46.79
35655;BME280;21773;50.010;19.972;2023-04-08T15:25:35;99309.91;;;13.73;47.10
35655;BME280;21773;50.010;19.972;2023-04-08T15:28:39;99319.72;;;13.74;47.41
35655;BME280;21773;50.010;19.972;2023-04-08T15:31:42;99317.25;;;13.84;47.53
35655;BME280;21773;50.010;19.972;2023-04-08T15:34:47;99311.34;;;13.76;47.30
35655;BME280;21773;50.010;19.972;2023-04-08T15:37:51;99319.63;;;13.81;47.62
35655;BME280;21773;50.010;19.972;2023-04-08T15:40:54;99315.72;;;13.77;47.16
35655;BME280;21773;50.010;19.972;2023-04-08T15:43:58;99313.47;;;13.74;47.45
35655;BME280;21773;50.010;19.972;2023-04-08T15:47:01;99315.19;;;13.68;47.48
35655;BME280;21773;50.010;19.972;2023-04-08T15:50:08;99318.16;;;13.67;47.49
35655;BME280;21773;50.010;19.972;2023-04-08T15:53:11;99314.16;;;13.69;47.51
35655;BME280;21773;50.010;19.972;2023-04-08T15:56:15;99315.94;;;13.75;47.42
35655;BME280;21773;50.010;19.972;2023-04-08T15:59:19;99313.94;;;13.71;47.83
35655;BME280;21773;50.010;19.972;2023-04-08T16:02:22;99323.25;;;13.75;47.65
35655;BME280;21773;50.010;19.972;2023-04-08T16:05:27;99322.81;;;13.78;48.03
35655;BME280;21773;50.010;19.972;2023-04-08T16:08:32;99318.44;;;13.77;48.00
35655;BME280;21773;50.010;19.972;2023-04-08T16:11:35;99324.69;;;13.77;47.82